sensor_id;sensor_type;location;lat;lon;timestamp;temperature;humidity
5899;DHT22;2975;50.956;6.962;2022-11-15T00:00:44;11.20;99.90
5899;DHT22;2975;50.956;6.962;2022-11-15T00:03:16;11.10;99.90
5899;DHT22;2975;50.956;6.962;2022-11-15T00:05:42;11.20;99.90
5899;DHT22;2975;50.956;6.962;2022-11-15T00:08:08;11.20;99.90
5899;DHT22;2975;50.956;6.962;2022-11-15T00:10:33;11.30;99.90
5899;DHT22;2975;50.956;6.962;2022-11-15T00:12:59;11.20;99.90
5899;DHT22;2975;50.956;6.962;2022-11-15T00:15:25;11.10;99.90
5899;DHT22;2975;50.956;6.962;2022-11-15T00:17:50;11.10;99.90
5899;DHT22;2975;50.956;6.962;2022-11-15T00:20:17;11.10;99.90
5899;DHT22;2975;50.956;6.962;2022-11-15T00:22:43;10.90;99.90
5899;DHT22;2975;50.956;6.962;2022-11-15T00:25:08;10.90;99.90
5899;DHT22;2975;50.956;6.962;2022-11-15T00:27:34;10.90;99.90
5899;DHT22;2975;50.956;6.962;2022-11-15T00:30:02;11.10;99.90
5899;DHT22;2975;50.956;6.962;2022-11-15T00:32:31;11.20;99.90
5899;DHT22;2975;50.956;6.962;2022-11-15T00:34:57;11.30;99.90
5899;DHT22;2975;50.956;6.962;2022-11-15T00:37:23;11.30;99.90
5899;DHT22;2975;50.956;6.962;2022-11-15T00:39:48;11.30;99.90
5899;DHT22;2975;50.956;6.962;2022-11-15T00:42:14;11.30;99.90
5899;DHT22;2975;50.956;6.962;2022-11-15T00:44:39;11.40;99.90
5899;DHT22;2975;50.956;6.962;2022-11-15T00:47:05;11.40;99.90
5899;DHT22;2975;50.956;6.962;2022-11-15T00:49:30;11.50;99.90
5899;DHT22;2975;50.956;6.962;2022-11-15T00:51:56;11.50;99.90
5899;DHT22;2975;50.956;6.962;2022-11-15T00:54:21;11.50;99.90
5899;DHT22;2975;50.956;6.962;2022-11-15T00:56:47;11.50;99.90
5899;DHT22;2975;50.956;6.962;2022-11-15T00:59:13;11.50;99.90
5899;DHT22;2975;50.956;6.962;2022-11-15T01:01:38;11.60;99.90
5899;DHT22;2975;50.956;6.962;2022-11-15T01:04:04;11.60;99.90
5899;DHT22;2975;50.956;6.962;2022-11-15T01:06:29;11.70;99.90
5899;DHT22;2975;50.956;6.962;2022-11-15T01:08:55;11.70;99.90
5899;DHT22;2975;50.956;6.962;2022-11-15T01:11:21;11.80;99.90
5899;DHT22;2975;50.956;6.962;2022-11-15T01:13:46;11.80;99.90
5899;DHT22;2975;50.956;6.962;2022-11-15T01:16:14;11.70;99.90
5899;DHT22;2975;50.956;6.962;2022-11-15T01:18:42;11.70;99.90
5899;DHT22;2975;50.956;6.962;2022-11-15T01:21:11;11.60;99.90
5899;DHT22;2975;50.956;6.962;2022-11-15T01:23:37;11.60;99.90
5899;DHT22;2975;50.956;6.962;2022-11-15T01:26:05;11.60;99.90
5899;DHT22;2975;50.956;6.962;2022-11-15T01:28:35;11.60;99.90
5899;DHT22;2975;50.956;6.962;2022-11-15T01:31:03;11.60;99.90
5899;DHT22;2975;50.956;6.962;2022-11-15T01:33:29;11.70;99.90
5899;DHT22;2975;50.956;6.962;2022-11-15T01:35:55;11.70;99.90
5899;DHT22;2975;50.956;6.962;2022-11-15T01:38:21;11.70;99.90
5899;DHT22;2975;50.956;6.962;2022-11-15T01:40:48;11.70;99.90
5899;DHT22;2975;50.956;6.962;2022-11-15T01:43:24;11.70;99.90
5899;DHT22;2975;50.956;6.962;2022-11-15T01:45:58;11.70;99.90
5899;DHT22;2975;50.956;6.962;2022-11-15T01:48:31;11.80;99.90
5899;DHT22;2975;50.956;6.962;2022-11-15T01:50:58;11.90;99.90
5899;DHT22;2975;50.956;6.962;2022-11-15T01:53:26;11.90;99.90
5899;DHT22;2975;50.956;6.962;2022-11-15T01:55:52;11.90;99.90
5899;DHT22;2975;50.956;6.962;2022-11-15T01:58:19;11.90;99.90
5899;DHT22;2975;50.956;6.962;2022-11-15T02:00:44;11.90;99.90
5899;DHT22;2975;50.956;6.962;2022-11-15T02:03:10;11.90;99.90
5899;DHT22;2975;50.956;6.962;2022-11-15T02:05:36;11.90;99.90
5899;DHT22;2975;50.956;6.962;2022-11-15T02:08:02;11.90;99.90
5899;DHT22;2975;50.956;6.962;2022-11-15T02:10:28;11.90;99.90
5899;DHT22;2975;50.956;6.962;2022-11-15T02:12:55;11.90;99.90
5899;DHT22;2975;50.956;6.962;2022-11-15T02:15:24;11.90;99.90
5899;DHT22;2975;50.956;6.962;2022-11-15T02:26:48;11.80;99.90
5899;DHT22;2975;50.956;6.962;2022-11-15T02:29:38;11.80;99.90
5899;DHT22;2975;50.956;6.962;2022-11-15T02:37:50;11.80;99.90
5899;DHT22;2975;50.956;6.962;2022-11-15T02:43:08;11.90;99.90
5899;DHT22;2975;50.956;6.962;2022-11-15T02:45:58;12.00;99.90
5899;DHT22;2975;50.956;6.962;2022-11-15T02:48:26;12.10;99.90
5899;DHT22;2975;50.956;6.962;2022-11-15T02:50:52;12.10;99.90
5899;DHT22;2975;50.956;6.962;2022-11-15T02:53:24;12.10;99.90
5899;DHT22;2975;50.956;6.962;2022-11-15T02:55:51;12.10;99.90
5899;DHT22;2975;50.956;6.962;2022-11-15T03:01:21;12.10;99.90
5899;DHT22;2975;50.956;6.962;2022-11-15T03:07:17;12.10;99.90
5899;DHT22;2975;50.956;6.962;2022-11-15T03:09:55;12.10;99.90
5899;DHT22;2975;50.956;6.962;2022-11-15T03:12:45;12.10;99.90
5899;DHT22;2975;50.956;6.962;2022-11-15T03:15:23;12.10;99.90
5899;DHT22;2975;50.956;6.962;2022-11-15T03:17:58;12.10;99.90
5899;DHT22;2975;50.956;6.962;2022-11-15T03:20:26;12.10;99.90
5899;DHT22;2975;50.956;6.962;2022-11-15T03:22:56;12.10;99.90
5899;DHT22;2975;50.956;6.962;2022-11-15T03:25:24;12.10;99.90
5899;DHT22;2975;50.956;6.962;2022-11-15T03:27:53;12.10;99.90
5899;DHT22;2975;50.956;6.962;2022-11-15T03:30:20;12.10;99.90
5899;DHT22;2975;50.956;6.962;2022-11-15T03:32:54;12.10;99.90
5899;DHT22;2975;50.956;6.962;2022-11-15T03:35:24;12.10;99.90
5899;DHT22;2975;50.956;6.962;2022-11-15T03:40:42;12.20;99.90
5899;DHT22;2975;50.956;6.962;2022-11-15T03:43:27;12.30;99.90
5899;DHT22;2975;50.956;6.962;2022-11-15T03:46:02;12.20;99.90
5899;DHT22;2975;50.956;6.962;2022-11-15T03:48:35;12.20;99.90
5899;DHT22;2975;50.956;6.962;2022-11-15T03:51:03;12.30;99.90
5899;DHT22;2975;50.956;6.962;2022-11-15T03:53:29;12.40;99.90
5899;DHT22;2975;50.956;6.962;2022-11-15T03:55:56;12.30;99.90
5899;DHT22;2975;50.956;6.962;2022-11-15T03:58:22;12.30;99.90
5899;DHT22;2975;50.956;6.962;2022-11-15T04:00:47;12.30;99.90
5899;DHT22;2975;50.956;6.962;2022-11-15T04:03:13;12.30;99.90
5899;DHT22;2975;50.956;6.962;2022-11-15T04:05:39;12.30;99.90
5899;DHT22;2975;50.956;6.962;2022-11-15T04:08:05;12.30;99.90
5899;DHT22;2975;50.956;6.962;2022-11-15T04:10:30;12.30;99.90
5899;DHT22;2975;50.956;6.962;2022-11-15T04:12:56;12.30;99.90
5899;DHT22;2975;50.956;6.962;2022-11-15T04:15:23;12.30;99.90
5899;DHT22;2975;50.956;6.962;2022-11-15T04:17:52;12.30;99.90
5899;DHT22;2975;50.956;6.962;2022-11-15T04:23:06;12.40;99.90
5899;DHT22;2975;50.956;6.962;2022-11-15T04:25:52;12.50;99.90
5899;DHT22;2975;50.956;6.962;2022-11-15T04:28:18;12.50;99.90
5899;DHT22;2975;50.956;6.962;2022-11-15T04:30:44;12.60;99.90
5899;DHT22;2975;50.956;6.962;2022-11-15T04:33:09;12.50;99.90
5899;DHT22;2975;50.956;6.962;2022-11-15T04:35:35;12.40;99.90
5899;DHT22;2975;50.956;6.962;2022-11-15T04:38:01;12.30;99.90
5899;DHT22;2975;50.956;6.962;2022-11-15T04:40:27;12.30;99.90
5899;DHT22;2975;50.956;6.962;2022-11-15T04:42:53;12.30;99.90
5899;DHT22;2975;50.956;6.962;2022-11-15T04:45:19;12.40;99.90
5899;DHT22;2975;50.956;6.962;2022-11-15T04:47:45;12.40;99.90
5899;DHT22;2975;50.956;6.962;2022-11-15T04:50:12;12.40;99.90
5899;DHT22;2975;50.956;6.962;2022-11-15T04:52:43;12.50;99.90
5899;DHT22;2975;50.956;6.962;2022-11-15T04:55:10;12.40;99.90
5899;DHT22;2975;50.956;6.962;2022-11-15T04:57:37;12.50;99.90
5899;DHT22;2975;50.956;6.962;2022-11-15T05:00:05;12.50;99.90
5899;DHT22;2975;50.956;6.962;2022-11-15T05:02:31;12.50;99.90
5899;DHT22;2975;50.956;6.962;2022-11-15T05:05:16;12.50;99.90
5899;DHT22;2975;50.956;6.962;2022-11-15T05:07:41;12.50;99.90
5899;DHT22;2975;50.956;6.962;2022-11-15T05:10:07;12.50;99.90
5899;DHT22;2975;50.956;6.962;2022-11-15T05:12:33;12.50;99.90
5899;DHT22;2975;50.956;6.962;2022-11-15T05:14:58;12.50;99.90
5899;DHT22;2975;50.956;6.962;2022-11-15T05:17:24;12.50;99.90
5899;DHT22;2975;50.956;6.962;2022-11-15T05:19:49;12.40;99.90
5899;DHT22;2975;50.956;6.962;2022-11-15T05:22:17;12.40;99.90
5899;DHT22;2975;50.956;6.962;2022-11-15T05:24:43;12.40;99.90
5899;DHT22;2975;50.956;6.962;2022-11-15T05:27:09;12.30;99.90
5899;DHT22;2975;50.956;6.962;2022-11-15T05:29:34;12.30;99.90
5899;DHT22;2975;50.956;6.962;2022-11-15T05:32:00;12.30;99.90
5899;DHT22;2975;50.956;6.962;2022-11-15T05:34:26;12.30;99.90
5899;DHT22;2975;50.956;6.962;2022-11-15T05:36:52;12.20;99.90
5899;DHT22;2975;50.956;6.962;2022-11-15T05:39:18;12.20;99.90
5899;DHT22;2975;50.956;6.962;2022-11-15T05:41:50;12.20;99.90
5899;DHT22;2975;50.956;6.962;2022-11-15T05:44:20;12.20;99.90
5899;DHT22;2975;50.956;6.962;2022-11-15T05:46:47;12.20;99.90
5899;DHT22;2975;50.956;6.962;2022-11-15T05:49:16;12.10;99.90
5899;DHT22;2975;50.956;6.962;2022-11-15T05:51:43;12.10;99.90
5899;DHT22;2975;50.956;6.962;2022-11-15T05:54:11;11.90;99.90
5899;DHT22;2975;50.956;6.962;2022-11-15T05:56:37;11.80;99.90
5899;DHT22;2975;50.956;6.962;2022-11-15T05:59:03;11.60;99.90
5899;DHT22;2975;50.956;6.962;2022-11-15T06:01:29;11.50;99.90
5899;DHT22;2975;50.956;6.962;2022-11-15T06:03:55;11.40;99.90
5899;DHT22;2975;50.956;6.962;2022-11-15T06:06:21;11.30;99.90
5899;DHT22;2975;50.956;6.962;2022-11-15T06:08:46;11.10;99.90
5899;DHT22;2975;50.956;6.962;2022-11-15T06:11:13;11.00;99.90
5899;DHT22;2975;50.956;6.962;2022-11-15T06:13:39;11.00;99.90
5899;DHT22;2975;50.956;6.962;2022-11-15T06:16:05;10.90;99.90
5899;DHT22;2975;50.956;6.962;2022-11-15T06:18:34;10.80;99.90
5899;DHT22;2975;50.956;6.962;2022-11-15T06:21:00;10.70;99.90
5899;DHT22;2975;50.956;6.962;2022-11-15T06:23:27;10.70;99.90
5899;DHT22;2975;50.956;6.962;2022-11-15T06:25:53;10.60;99.90
5899;DHT22;2975;50.956;6.962;2022-11-15T06:28:18;10.50;99.90
5899;DHT22;2975;50.956;6.962;2022-11-15T06:30:44;10.50;99.90
5899;DHT22;2975;50.956;6.962;2022-11-15T06:33:10;10.40;99.90
5899;DHT22;2975;50.956;6.962;2022-11-15T06:35:36;10.40;99.90
5899;DHT22;2975;50.956;6.962;2022-11-15T06:38:07;10.30;99.90
5899;DHT22;2975;50.956;6.962;2022-11-15T06:40:34;10.30;99.90
5899;DHT22;2975;50.956;6.962;2022-11-15T06:43:00;10.30;99.90
5899;DHT22;2975;50.956;6.962;2022-11-15T06:45:26;10.50;99.90
5899;DHT22;2975;50.956;6.962;2022-11-15T06:47:52;10.40;99.90
5899;DHT22;2975;50.956;6.962;2022-11-15T06:50:17;10.40;99.90
5899;DHT22;2975;50.956;6.962;2022-11-15T06:52:43;10.40;99.90
5899;DHT22;2975;50.956;6.962;2022-11-15T06:55:09;10.40;99.90
5899;DHT22;2975;50.956;6.962;2022-11-15T06:57:35;10.30;99.90
5899;DHT22;2975;50.956;6.962;2022-11-15T07:00:01;10.30;99.90
5899;DHT22;2975;50.956;6.962;2022-11-15T07:02:27;10.30;99.90
5899;DHT22;2975;50.956;6.962;2022-11-15T07:04:53;10.30;99.90
5899;DHT22;2975;50.956;6.962;2022-11-15T07:07:18;10.20;99.90
5899;DHT22;2975;50.956;6.962;2022-11-15T07:09:44;10.30;99.90
5899;DHT22;2975;50.956;6.962;2022-11-15T07:12:10;10.40;99.90
5899;DHT22;2975;50.956;6.962;2022-11-15T07:14:35;10.40;99.90
5899;DHT22;2975;50.956;6.962;2022-11-15T07:17:03;10.40;99.90
5899;DHT22;2975;50.956;6.962;2022-11-15T07:19:30;10.40;99.90
5899;DHT22;2975;50.956;6.962;2022-11-15T07:21:56;10.40;99.90
5899;DHT22;2975;50.956;6.962;2022-11-15T07:24:21;10.30;99.90
5899;DHT22;2975;50.956;6.962;2022-11-15T07:26:47;10.30;99.90
5899;DHT22;2975;50.956;6.962;2022-11-15T07:29:12;10.30;99.90
5899;DHT22;2975;50.956;6.962;2022-11-15T07:31:38;10.30;99.90
5899;DHT22;2975;50.956;6.962;2022-11-15T07:34:04;10.40;99.90
5899;DHT22;2975;50.956;6.962;2022-11-15T07:36:30;10.40;99.90
5899;DHT22;2975;50.956;6.962;2022-11-15T07:38:55;10.40;99.90
5899;DHT22;2975;50.956;6.962;2022-11-15T07:41:21;10.40;99.90
5899;DHT22;2975;50.956;6.962;2022-11-15T07:43:46;10.40;99.90
5899;DHT22;2975;50.956;6.962;2022-11-15T07:46:12;10.40;99.90
5899;DHT22;2975;50.956;6.962;2022-11-15T07:48:38;10.50;99.90
5899;DHT22;2975;50.956;6.962;2022-11-15T07:51:06;10.50;99.90
5899;DHT22;2975;50.956;6.962;2022-11-15T07:53:32;10.60;99.90
5899;DHT22;2975;50.956;6.962;2022-11-15T07:55:57;10.60;99.90
5899;DHT22;2975;50.956;6.962;2022-11-15T07:58:23;10.70;99.90
5899;DHT22;2975;50.956;6.962;2022-11-15T08:00:49;10.70;99.90
5899;DHT22;2975;50.956;6.962;2022-11-15T08:03:16;10.70;99.90
5899;DHT22;2975;50.956;6.962;2022-11-15T08:05:42;10.80;99.90
5899;DHT22;2975;50.956;6.962;2022-11-15T08:08:09;10.90;99.90
5899;DHT22;2975;50.956;6.962;2022-11-15T08:10:36;10.90;99.90
5899;DHT22;2975;50.956;6.962;2022-11-15T08:13:04;11.00;99.90
5899;DHT22;2975;50.956;6.962;2022-11-15T08:15:30;11.00;99.90
5899;DHT22;2975;50.956;6.962;2022-11-15T08:17:58;11.10;99.90
5899;DHT22;2975;50.956;6.962;2022-11-15T08:20:25;11.10;99.90
5899;DHT22;2975;50.956;6.962;2022-11-15T08:22:51;11.20;99.90
5899;DHT22;2975;50.956;6.962;2022-11-15T08:25:17;11.30;99.90
5899;DHT22;2975;50.956;6.962;2022-11-15T08:27:43;11.30;99.90
5899;DHT22;2975;50.956;6.962;2022-11-15T08:30:09;11.30;99.90
5899;DHT22;2975;50.956;6.962;2022-11-15T08:32:34;11.30;99.90
5899;DHT22;2975;50.956;6.962;2022-11-15T08:35:00;11.40;99.90
5899;DHT22;2975;50.956;6.962;2022-11-15T08:37:26;11.50;99.90
5899;DHT22;2975;50.956;6.962;2022-11-15T08:39:51;11.50;99.90
5899;DHT22;2975;50.956;6.962;2022-11-15T08:42:17;11.60;99.90
5899;DHT22;2975;50.956;6.962;2022-11-15T08:44:43;11.70;99.90
5899;DHT22;2975;50.956;6.962;2022-11-15T08:47:11;11.70;99.90
5899;DHT22;2975;50.956;6.962;2022-11-15T08:49:37;11.70;99.90
5899;DHT22;2975;50.956;6.962;2022-11-15T08:52:03;11.80;99.90
5899;DHT22;2975;50.956;6.962;2022-11-15T08:54:29;11.90;99.90
5899;DHT22;2975;50.956;6.962;2022-11-15T08:56:54;11.90;99.90
5899;DHT22;2975;50.956;6.962;2022-11-15T08:59:20;12.00;99.90
5899;DHT22;2975;50.956;6.962;2022-11-15T09:01:46;12.10;99.90
5899;DHT22;2975;50.956;6.962;2022-11-15T09:04:11;12.20;99.90
5899;DHT22;2975;50.956;6.962;2022-11-15T09:06:37;12.20;99.90
5899;DHT22;2975;50.956;6.962;2022-11-15T09:09:03;12.30;99.90
5899;DHT22;2975;50.956;6.962;2022-11-15T09:11:28;12.30;99.90
5899;DHT22;2975;50.956;6.962;2022-11-15T09:13:54;12.40;99.90
5899;DHT22;2975;50.956;6.962;2022-11-15T09:16:20;12.40;99.90
5899;DHT22;2975;50.956;6.962;2022-11-15T09:18:46;12.40;99.90
5899;DHT22;2975;50.956;6.962;2022-11-15T09:21:11;12.40;99.90
5899;DHT22;2975;50.956;6.962;2022-11-15T09:23:37;12.40;99.90
5899;DHT22;2975;50.956;6.962;2022-11-15T09:26:05;12.40;99.90
5899;DHT22;2975;50.956;6.962;2022-11-15T09:28:32;12.50;99.90
5899;DHT22;2975;50.956;6.962;2022-11-15T09:30:59;12.50;99.90
5899;DHT22;2975;50.956;6.962;2022-11-15T09:33:26;12.50;99.90
5899;DHT22;2975;50.956;6.962;2022-11-15T09:35:53;12.50;99.90
5899;DHT22;2975;50.956;6.962;2022-11-15T09:38:19;12.60;99.90
5899;DHT22;2975;50.956;6.962;2022-11-15T09:40:49;12.60;99.90
5899;DHT22;2975;50.956;6.962;2022-11-15T09:46:27;12.80;99.90
5899;DHT22;2975;50.956;6.962;2022-11-15T09:48:59;12.80;99.90
5899;DHT22;2975;50.956;6.962;2022-11-15T09:56:41;12.90;99.90
5899;DHT22;2975;50.956;6.962;2022-11-15T10:04:23;13.00;99.90
5899;DHT22;2975;50.956;6.962;2022-11-15T10:09:45;13.20;99.90
5899;DHT22;2975;50.956;6.962;2022-11-15T10:12:13;13.20;99.90
5899;DHT22;2975;50.956;6.962;2022-11-15T10:14:39;13.20;99.90
5899;DHT22;2975;50.956;6.962;2022-11-15T10:22:28;13.10;99.90
5899;DHT22;2975;50.956;6.962;2022-11-15T10:28:16;13.10;99.90
5899;DHT22;2975;50.956;6.962;2022-11-15T10:30:43;13.20;99.90
5899;DHT22;2975;50.956;6.962;2022-11-15T10:33:29;13.20;99.90
5899;DHT22;2975;50.956;6.962;2022-11-15T10:46:28;13.40;99.90
5899;DHT22;2975;50.956;6.962;2022-11-15T10:51:54;13.40;99.90
5899;DHT22;2975;50.956;6.962;2022-11-15T10:54:33;13.40;99.90
5899;DHT22;2975;50.956;6.962;2022-11-15T10:57:05;13.40;99.90
5899;DHT22;2975;50.956;6.962;2022-11-15T10:59:33;13.40;99.90
5899;DHT22;2975;50.956;6.962;2022-11-15T11:02:00;13.30;99.30
5899;DHT22;2975;50.956;6.962;2022-11-15T11:04:26;13.30;99.90
5899;DHT22;2975;50.956;6.962;2022-11-15T11:06:57;13.30;99.90
5899;DHT22;2975;50.956;6.962;2022-11-15T11:09:38;13.40;99.90
5899;DHT22;2975;50.956;6.962;2022-11-15T11:12:10;13.40;99.90
5899;DHT22;2975;50.956;6.962;2022-11-15T11:14:38;13.40;99.90
5899;DHT22;2975;50.956;6.962;2022-11-15T11:23:00;13.60;98.30
5899;DHT22;2975;50.956;6.962;2022-11-15T11:25:36;13.60;97.80
5899;DHT22;2975;50.956;6.962;2022-11-15T11:47:22;13.50;98.00
5899;DHT22;2975;50.956;6.962;2022-11-15T11:50:03;13.60;97.30
5899;DHT22;2975;50.956;6.962;2022-11-15T11:52:57;13.60;97.70
5899;DHT22;2975;50.956;6.962;2022-11-15T11:55:30;13.70;97.40
5899;DHT22;2975;50.956;6.962;2022-11-15T12:00:46;13.90;97.20
5899;DHT22;2975;50.956;6.962;2022-11-15T12:04:29;14.00;97.40
5899;DHT22;2975;50.956;6.962;2022-11-15T12:06:53;14.00;97.60
5899;DHT22;2975;50.956;6.962;2022-11-15T12:09:33;14.10;97.00
5899;DHT22;2975;50.956;6.962;2022-11-15T12:12:35;14.20;96.70
5899;DHT22;2975;50.956;6.962;2022-11-15T12:17:33;14.30;97.30
5899;DHT22;2975;50.956;6.962;2022-11-15T12:20:03;14.30;96.70
5899;DHT22;2975;50.956;6.962;2022-11-15T12:31:01;14.50;97.40
5899;DHT22;2975;50.956;6.962;2022-11-15T12:36:02;14.70;97.10
5899;DHT22;2975;50.956;6.962;2022-11-15T12:41:23;15.10;96.20
5899;DHT22;2975;50.956;6.962;2022-11-15T12:43:49;15.20;96.00
5899;DHT22;2975;50.956;6.962;2022-11-15T12:46:21;15.30;95.60
5899;DHT22;2975;50.956;6.962;2022-11-15T12:51:13;15.40;94.90
5899;DHT22;2975;50.956;6.962;2022-11-15T12:53:39;15.50;94.50
5899;DHT22;2975;50.956;6.962;2022-11-15T13:11:55;15.60;95.50
5899;DHT22;2975;50.956;6.962;2022-11-15T13:17:03;15.50;96.70
5899;DHT22;2975;50.956;6.962;2022-11-15T13:19:36;15.60;97.00
5899;DHT22;2975;50.956;6.962;2022-11-15T13:22:06;15.80;97.00
5899;DHT22;2975;50.956;6.962;2022-11-15T13:24:52;15.70;97.40
5899;DHT22;2975;50.956;6.962;2022-11-15T13:27:19;15.80;97.50
5899;DHT22;2975;50.956;6.962;2022-11-15T13:29:45;15.80;97.80
5899;DHT22;2975;50.956;6.962;2022-11-15T13:32:13;15.80;97.80
5899;DHT22;2975;50.956;6.962;2022-11-15T13:34:43;15.80;98.00
5899;DHT22;2975;50.956;6.962;2022-11-15T13:39:47;15.80;98.20
5899;DHT22;2975;50.956;6.962;2022-11-15T13:42:18;15.70;98.30
5899;DHT22;2975;50.956;6.962;2022-11-15T13:45:02;15.70;98.60
5899;DHT22;2975;50.956;6.962;2022-11-15T13:47:29;15.70;98.80
5899;DHT22;2975;50.956;6.962;2022-11-15T13:49:58;15.70;99.00
5899;DHT22;2975;50.956;6.962;2022-11-15T13:52:34;15.60;98.70
5899;DHT22;2975;50.956;6.962;2022-11-15T13:55:20;15.60;98.70
5899;DHT22;2975;50.956;6.962;2022-11-15T13:57:50;15.60;99.10
5899;DHT22;2975;50.956;6.962;2022-11-15T14:00:41;15.60;98.90
5899;DHT22;2975;50.956;6.962;2022-11-15T14:05:39;15.50;99.30
5899;DHT22;2975;50.956;6.962;2022-11-15T14:08:23;15.40;99.70
5899;DHT22;2975;50.956;6.962;2022-11-15T14:11:12;15.40;99.60
5899;DHT22;2975;50.956;6.962;2022-11-15T14:13:39;15.50;99.40
5899;DHT22;2975;50.956;6.962;2022-11-15T14:16:21;15.50;99.40
5899;DHT22;2975;50.956;6.962;2022-11-15T14:18:57;15.40;99.70
5899;DHT22;2975;50.956;6.962;2022-11-15T14:21:23;15.30;99.90
5899;DHT22;2975;50.956;6.962;2022-11-15T14:23:48;15.30;99.90
5899;DHT22;2975;50.956;6.962;2022-11-15T14:26:32;15.20;99.90
5899;DHT22;2975;50.956;6.962;2022-11-15T14:29:25;15.20;99.90
5899;DHT22;2975;50.956;6.962;2022-11-15T14:31:51;15.20;99.90
5899;DHT22;2975;50.956;6.962;2022-11-15T14:34:16;15.20;99.90
5899;DHT22;2975;50.956;6.962;2022-11-15T14:36:42;15.10;99.90
5899;DHT22;2975;50.956;6.962;2022-11-15T14:39:08;15.00;99.90
5899;DHT22;2975;50.956;6.962;2022-11-15T14:41:35;15.00;99.90
5899;DHT22;2975;50.956;6.962;2022-11-15T14:44:05;15.00;99.90
5899;DHT22;2975;50.956;6.962;2022-11-15T14:46:31;14.90;99.90
5899;DHT22;2975;50.956;6.962;2022-11-15T14:48:57;14.90;99.90
5899;DHT22;2975;50.956;6.962;2022-11-15T14:51:23;14.90;99.90
5899;DHT22;2975;50.956;6.962;2022-11-15T14:53:49;14.90;99.90
5899;DHT22;2975;50.956;6.962;2022-11-15T14:56:15;14.90;99.90
5899;DHT22;2975;50.956;6.962;2022-11-15T14:58:41;15.00;99.90
5899;DHT22;2975;50.956;6.962;2022-11-15T15:01:14;14.90;99.90
5899;DHT22;2975;50.956;6.962;2022-11-15T15:03:41;14.90;99.90
5899;DHT22;2975;50.956;6.962;2022-11-15T15:06:09;14.80;99.90
5899;DHT22;2975;50.956;6.962;2022-11-15T15:08:35;14.70;99.90
5899;DHT22;2975;50.956;6.962;2022-11-15T15:11:00;14.60;99.90
5899;DHT22;2975;50.956;6.962;2022-11-15T15:13:26;14.60;99.90
5899;DHT22;2975;50.956;6.962;2022-11-15T15:15:54;14.60;99.90
5899;DHT22;2975;50.956;6.962;2022-11-15T15:18:19;14.60;99.90
5899;DHT22;2975;50.956;6.962;2022-11-15T15:20:49;14.60;99.90
5899;DHT22;2975;50.956;6.962;2022-11-15T15:23:19;14.50;99.90
5899;DHT22;2975;50.956;6.962;2022-11-15T15:25:47;14.50;99.90
5899;DHT22;2975;50.956;6.962;2022-11-15T15:28:14;14.40;99.90
5899;DHT22;2975;50.956;6.962;2022-11-15T15:30:39;14.40;99.90
5899;DHT22;2975;50.956;6.962;2022-11-15T15:33:05;14.30;99.90
5899;DHT22;2975;50.956;6.962;2022-11-15T15:35:33;14.30;99.90
5899;DHT22;2975;50.956;6.962;2022-11-15T15:37:59;14.30;99.90
5899;DHT22;2975;50.956;6.962;2022-11-15T15:40:27;14.20;99.90
5899;DHT22;2975;50.956;6.962;2022-11-15T15:42:53;14.20;99.90
5899;DHT22;2975;50.956;6.962;2022-11-15T15:45:18;14.20;99.90
5899;DHT22;2975;50.956;6.962;2022-11-15T15:47:45;14.20;99.90
5899;DHT22;2975;50.956;6.962;2022-11-15T15:50:27;14.10;99.90
5899;DHT22;2975;50.956;6.962;2022-11-15T15:52:59;14.20;99.90
5899;DHT22;2975;50.956;6.962;2022-11-15T15:55:25;14.10;99.90
5899;DHT22;2975;50.956;6.962;2022-11-15T15:57:51;14.10;99.90
5899;DHT22;2975;50.956;6.962;2022-11-15T16:00:17;14.00;99.90
5899;DHT22;2975;50.956;6.962;2022-11-15T16:02:43;14.00;99.90
5899;DHT22;2975;50.956;6.962;2022-11-15T16:05:10;14.00;99.90
5899;DHT22;2975;50.956;6.962;2022-11-15T16:07:36;13.90;99.90
5899;DHT22;2975;50.956;6.962;2022-11-15T16:10:23;13.90;99.90
5899;DHT22;2975;50.956;6.962;2022-11-15T16:12:50;14.00;99.90
5899;DHT22;2975;50.956;6.962;2022-11-15T16:15:17;14.00;99.90
5899;DHT22;2975;50.956;6.962;2022-11-15T16:17:54;14.00;99.90
5899;DHT22;2975;50.956;6.962;2022-11-15T16:22:46;13.90;99.90
5899;DHT22;2975;50.956;6.962;2022-11-15T16:25:12;14.00;99.90
5899;DHT22;2975;50.956;6.962;2022-11-15T16:27:37;14.00;99.90
5899;DHT22;2975;50.956;6.962;2022-11-15T16:30:14;14.00;99.90
5899;DHT22;2975;50.956;6.962;2022-11-15T16:32:40;14.20;99.90
5899;DHT22;2975;50.956;6.962;2022-11-15T16:35:06;14.20;99.90
5899;DHT22;2975;50.956;6.962;2022-11-15T16:37:32;14.10;99.90
5899;DHT22;2975;50.956;6.962;2022-11-15T16:39:58;14.10;99.90
5899;DHT22;2975;50.956;6.962;2022-11-15T16:42:23;14.10;99.90
5899;DHT22;2975;50.956;6.962;2022-11-15T16:44:49;14.10;99.90
5899;DHT22;2975;50.956;6.962;2022-11-15T16:47:18;14.20;99.90
5899;DHT22;2975;50.956;6.962;2022-11-15T16:49:44;14.20;99.90
5899;DHT22;2975;50.956;6.962;2022-11-15T16:52:10;14.20;99.90
5899;DHT22;2975;50.956;6.962;2022-11-15T16:54:36;14.20;99.90
5899;DHT22;2975;50.956;6.962;2022-11-15T16:57:02;14.30;99.90
5899;DHT22;2975;50.956;6.962;2022-11-15T16:59:27;14.30;99.90
5899;DHT22;2975;50.956;6.962;2022-11-15T17:01:54;14.20;99.90
5899;DHT22;2975;50.956;6.962;2022-11-15T17:04:19;14.20;99.90
5899;DHT22;2975;50.956;6.962;2022-11-15T17:06:47;14.20;99.90
5899;DHT22;2975;50.956;6.962;2022-11-15T17:09:21;14.20;99.90
5899;DHT22;2975;50.956;6.962;2022-11-15T17:11:50;14.20;99.90
5899;DHT22;2975;50.956;6.962;2022-11-15T17:14:16;14.20;99.90
5899;DHT22;2975;50.956;6.962;2022-11-15T17:16:42;14.20;99.90
5899;DHT22;2975;50.956;6.962;2022-11-15T17:19:19;14.20;99.90
5899;DHT22;2975;50.956;6.962;2022-11-15T17:21:46;14.20;99.90
5899;DHT22;2975;50.956;6.962;2022-11-15T17:24:14;14.10;99.90
5899;DHT22;2975;50.956;6.962;2022-11-15T17:26:39;14.10;99.90
5899;DHT22;2975;50.956;6.962;2022-11-15T17:29:07;14.10;99.90
5899;DHT22;2975;50.956;6.962;2022-11-15T17:31:36;14.10;99.90
5899;DHT22;2975;50.956;6.962;2022-11-15T17:34:03;14.20;99.90
5899;DHT22;2975;50.956;6.962;2022-11-15T17:36:29;14.10;99.90
5899;DHT22;2975;50.956;6.962;2022-11-15T17:38:55;14.10;99.90
5899;DHT22;2975;50.956;6.962;2022-11-15T17:41:21;14.10;99.90
5899;DHT22;2975;50.956;6.962;2022-11-15T17:43:47;14.20;99.90
5899;DHT22;2975;50.956;6.962;2022-11-15T17:46:15;14.10;99.90
5899;DHT22;2975;50.956;6.962;2022-11-15T17:48:42;14.00;99.90
5899;DHT22;2975;50.956;6.962;2022-11-15T17:51:11;14.00;99.90
5899;DHT22;2975;50.956;6.962;2022-11-15T17:53:40;14.00;99.90
5899;DHT22;2975;50.956;6.962;2022-11-15T17:56:12;13.90;99.90
5899;DHT22;2975;50.956;6.962;2022-11-15T17:58:38;13.80;99.90
5899;DHT22;2975;50.956;6.962;2022-11-15T18:03:40;13.80;99.90
5899;DHT22;2975;50.956;6.962;2022-11-15T18:06:07;13.70;99.90
5899;DHT22;2975;50.956;6.962;2022-11-15T18:08:37;13.70;99.90
5899;DHT22;2975;50.956;6.962;2022-11-15T18:11:11;13.70;99.90
5899;DHT22;2975;50.956;6.962;2022-11-15T18:13:39;13.70;99.90
5899;DHT22;2975;50.956;6.962;2022-11-15T18:16:09;13.60;99.90
5899;DHT22;2975;50.956;6.962;2022-11-15T18:18:36;13.60;99.90
5899;DHT22;2975;50.956;6.962;2022-11-15T18:21:04;13.50;99.90
5899;DHT22;2975;50.956;6.962;2022-11-15T18:23:31;13.50;99.90
5899;DHT22;2975;50.956;6.962;2022-11-15T18:25:56;13.50;99.90
5899;DHT22;2975;50.956;6.962;2022-11-15T18:28:28;13.50;99.90
5899;DHT22;2975;50.956;6.962;2022-11-15T18:30:54;13.50;99.90
5899;DHT22;2975;50.956;6.962;2022-11-15T18:33:20;13.40;99.90